< Typhoon 202016 2020 Season Typhoon 202018 >
Typhoon 202017 (SAUDEL)
General InformationTrack Information on Google MapsDetailed Wind InformationForecast History on Google MapsAccess Analytics MapList of All Images || NewsDisaster Info.WeblogTrackbackTyphoon FrontTwiphoonTyphoon Now!Typhoon ImaginationJMA Disaster Info. XMLResourceGoogle EarthGE AnimationAtom FeedGeoJSON
Detalied Best Track (Time Zone = UTC)
Year Month Day Hour Lat. Long. Pressure (hPa) Wind (kt) Class Image Chart
2020 10 19 00 13.3 129.4 1004 30 2 Image Chart
2020 10 19 03 13.6 128.7 1004 30 2 Image Chart
2020 10 19 06 13.8 128.4 1002 30 2 Image Chart
2020 10 19 09 14.0 127.9 1002 30 2 Image Chart
2020 10 19 12 14.2 127.3 1002 30 2 Image Chart
2020 10 19 15 14.4 126.7 1002 30 2 Image Chart
2020 10 19 18 15.0 126.0 1002 30 2 Image Chart
2020 10 19 21 15.1 125.3 1002 30 2 Image Chart
2020 10 20 00 15.6 124.7 1000 35 3 Image Chart
2020 10 20 03 15.8 124.0 1000 35 3 Image Chart
2020 10 20 06 15.7 123.2 996 35 3 Image Chart
2020 10 20 09 15.9 122.6 996 35 3 Image Chart
2020 10 20 12 15.8 122.0 996 35 3 Image Chart
2020 10 20 15 15.8 121.3 996 35 3 Image Chart
2020 10 20 18 16.3 119.7 996 35 3 Image Chart
2020 10 20 21 16.8 119.7 996 35 3 Image Chart
2020 10 21 00 16.0 118.8 996 35 3 Image Chart
2020 10 21 03 16.0 118.3 996 35 3 Image Chart
2020 10 21 06 16.4 117.7 990 50 4 Image Chart
2020 10 21 09 15.8 117.7 985 55 4 Image Chart
2020 10 21 12 15.8 117.4 985 55 4 Image Chart
2020 10 21 15 16.0 117.1 985 55 4 Image Chart
2020 10 21 18 16.6 116.9 985 55 4 Image Chart
2020 10 21 21 16.4 116.5 985 55 4 Image Chart
2020 10 22 00 17.1 116.0 975 65 5 Image Chart
2020 10 22 03 17.1 116.0 975 65 5 Image Chart
2020 10 22 06 17.0 115.8 975 65 5 Image Chart
2020 10 22 09 17.1 115.8 975 65 5 Image Chart
2020 10 22 12 17.1 115.8 970 70 5 Image Chart
2020 10 22 15 17.3 115.8 970 70 5 Image Chart
2020 10 22 18 17.5 115.8 965 75 5 Image Chart
2020 10 22 21 17.5 115.5 965 75 5 Image Chart
2020 10 23 00 17.5 115.3 965 75 5 Image Chart
2020 10 23 03 17.8 115.1 965 75 5 Image Chart
2020 10 23 06 17.9 114.8 965 75 5 Image Chart
2020 10 23 09 17.9 114.5 965 75 5 Image Chart
2020 10 23 12 17.9 114.2 970 70 5 Image Chart
2020 10 23 15 18.0 114.0 970 70 5 Image Chart
2020 10 23 18 18.0 113.9 975 65 5 Image Chart
2020 10 23 21 18.0 113.7 975 65 5 Image Chart
2020 10 24 00 18.2 113.3 980 60 4 Image Chart
2020 10 24 03 17.8 113.1 985 55 4 Image Chart
2020 10 24 06 17.8 112.6 985 55 4 Image Chart
2020 10 24 09 17.8 112.1 985 55 4 Image Chart
2020 10 24 12 17.7 111.5 990 50 4 Image Chart
2020 10 24 15 17.7 110.9 990 50 4 Image Chart
2020 10 24 18 17.6 110.4 990 50 4 Image Chart
2020 10 24 21 17.5 109.7 990 50 4 Image Chart
2020 10 25 00 17.5 108.6 992 45 3 Image Chart
2020 10 25 03 17.5 108.5 998 40 3 Image Chart
2020 10 25 06 17.5 108.2 998 40 3 Image Chart
2020 10 25 09 17.4 107.9 998 40 3 Image Chart
2020 10 25 12 17.6 107.7 1000 35 3 Image Chart
2020 10 25 15 17.6 107.6 1002 35 3 Image Chart
2020 10 25 18 18.0 107.0 1006 0 2 Image Chart
Japan Meteorological Agency Best Track Data | Correction Date : 2020-10-25
< Typhoon 202016 2020 Season Typhoon 202018 >

Help